Terminal Aerodrome Forecast
Issued by NWS

Home | Current Version | Previous Version | Text Only | Print | Product List | Glossary On
Versions: 1 2 3 4 5 6 7 8 9 10 11 12 13 14
805
FTUS41 KPBZ 230534
TAFLBE
TAF
KLBE 230534Z 2306/2406 15010KT P6SM BKN080 WS020/20040KT
     FM230800 19007KT P6SM -SHRA OVC050 WS020/20040KT
      TEMPO 2308/2310 3SM SHRA
     FM231000 21010KT P6SM VCSH BKN050
     FM231400 23020G30KT P6SM VCSH BKN035
     FM232200 25018G28KT P6SM BKN025=

USA.gov is the U.S. government's official web portal to all federal, state and local government web resources and services.